DW3400 Weather Reports


Display with metric or nautical units.
time (UTC)temp
F
wind
direction
speed
MPH
gust
MPH
rain 1hr
in
rain 24hr
in
rain mn
in
humidity
%
barometer
mb
20210614181003 71 220 1.0 5.0 0.00 0.00 0.00 66 1020.2
20210614180503 71 252 2.0 3.0 0.00 0.00 0.00 65 1020.2
20210614175003 72 236 1.0 3.0 0.00 0.00 0.00 64 1020.2
20210614174503 72 227 2.0 5.0 0.00 0.00 0.00 64 1020.2
20210614174003 72 265 1.0 6.0 0.00 0.00 0.00 64 1020.2
20210614173504 72 242 2.0 5.0 0.00 0.00 0.00 64 1020.2
20210614172503 71 234 2.0 5.0 0.00 0.00 0.00 64 1020.2
20210614172003 72 248 1.0 6.0 0.00 0.00 0.00 65 1020.2
20210614170503 72 209 2.0 3.0 0.00 0.00 0.00 66 1020.2
20210614165003 72 171 2.0 6.0 0.00 0.00 0.00 65 1020.2
20210614164504 72 175 3.0 7.0 0.00 0.00 0.00 65 1020.2
20210614163503 72 195 3.0 6.0 0.00 0.00 0.00 64 1020.2
20210614163003 71 184 3.0 7.0 0.00 0.00 0.00 65 1020.2
20210614162503 72 180 4.0 9.0 0.00 0.00 0.00 64 1020.2
20210614162004 72 172 2.0 8.0 0.00 0.00 0.00 65 1020.2
20210614161503 72 183 5.0 10.0 0.00 0.00 0.00 61 1020.2
20210614161003 73 182 3.0 8.0 0.00 0.00 0.00 61 1020.2
20210614160503 72 198 3.0 7.0 0.00 0.00 0.00 62 1020.2
20210614155004 72 185 2.0 8.0 0.00 0.00 0.00 62 1020.2
20210614154503 72 174 3.0 8.0 0.00 0.00 0.00 63 1020.2
20210614153504 72 176 5.0 8.0 0.00 0.00 0.00 65 1020.2
20210614152504 71 182 3.0 8.0 0.00 0.00 0.00 68 1020.2
20210614152004 71 169 5.0 9.0 0.00 0.00 0.00 68 1020.2
20210614151504 71 174 5.0 9.0 0.00 0.00 0.00 67 1020.2
20210614150503 71 192 3.0 7.0 0.00 0.00 0.00 68 1020.2
20210614145503 71 155 5.0 9.0 0.00 0.00 0.00 64 1020.2
20210614145004 71 189 6.0 9.0 0.00 0.00 0.00 64 1020.2
20210614144504 71 178 5.0 9.0 0.00 0.00 0.00 63 1020.2
20210614144004 71 178 5.0 8.0 0.00 0.00 0.00 65 1020.2
20210614143503 71 181 4.0 7.0 0.00 0.00 0.00 65 1020.2
20210614143005 71 187 5.0 8.0 0.00 0.00 0.00 66 1020.2
20210614142504 71 185 7.0 10.0 0.00 0.00 0.00 64 1020.2
20210614142004 71 178 5.0 9.0 0.00 0.00 0.00 66 1020.2
20210614141004 72 169 5.0 10.0 0.00 0.00 0.00 65 1020.2
20210614140504 71 186 6.0 10.0 0.00 0.00 0.00 63 1020.2
20210614140003 71 180 6.0 12.0 0.00 0.00 0.00 64 1020.2
20210614135505 71 180 6.0 12.0 0.00 0.00 0.00 62 1020.2
20210614135003 72 185 5.0 10.0 0.00 0.00 0.00 63 1020.2
20210614134503 72 177 6.0 12.0 0.00 0.00 0.00 62 1020.2
20210614133503 72 182 6.0 10.0 0.00 0.00 0.00 63 1020.2
20210614133003 72 192 6.0 12.0 0.00 0.00 0.00 63 1020.2
20210614132004 72 179 4.0 9.0 0.00 0.00 0.00 62 1020.2
20210614131503 71 222 3.0 8.0 0.00 0.00 0.00 64 1020.2
20210614131003 71 182 6.0 13.0 0.00 0.00 0.00 64 1020.2
20210614130003 71 178 5.0 12.0 0.00 0.00 0.00 62 1020.2
20210614125504 72 176 5.0 12.0 0.00 0.00 0.00 63 1020.2
20210614125003 71 193 5.0 12.0 0.00 0.00 0.00 62 1020.2
20210614123504 71 179 8.0 12.0 0.00 0.00 0.00 64 1020.2
20210614123004 71 190 6.0 13.0 0.00 0.00 0.00 63 1020.2
20210614122503 71 165 3.0 10.0 0.00 0.00 0.00 63 1020.2
20210614121503 70 184 5.0 10.0 0.00 0.00 0.00 65 1020.2
20210614121004 70 189 6.0 13.0 0.00 0.00 0.00 66 1020.2
20210614115003 70 185 6.0 13.0 0.00 0.00 0.00 65 1020.2
20210614114503 70 234 3.0 8.0 0.00 0.00 0.00 64 1020.2
20210614114003 69 193 6.0 14.0 0.00 0.00 0.00 66 1020.2
20210614113503 69 164 6.0 14.0 0.00 0.00 0.00 68 1020.2
20210614112503 69 182 6.0 12.0 0.00 0.00 0.00 67 1020.2
20210614112003 69 204 5.0 12.0 0.00 0.00 0.00 67 1020.2
20210614111504 69 213 5.0 13.0 0.00 0.00 0.00 68 1020.2
20210614110504 69 180 4.0 9.0 0.00 0.00 0.00 69 1020.2
20210614110003 69 183 5.0 9.0 0.00 0.00 0.00 66 1020.2
20210614105503 69 177 3.0 9.0 0.00 0.00 0.00 69 1020.2
20210614105003 68 173 5.0 10.0 0.00 0.00 0.00 69 1020.2
20210614104503 68 194 4.0 9.0 0.00 0.00 0.00 68 1020.2
20210614104003 68 176 7.0 13.0 0.00 0.00 0.00 68 1020.2
20210614102503 67 187 5.0 12.0 0.00 0.00 0.00 69 1020.2
20210614101503 67 214 5.0 10.0 0.00 0.00 0.00 70 1020.2
20210614101003 67 190 6.0 10.0 0.00 0.00 0.00 72 1020.2
20210614100003 66 195 7.0 12.0 0.00 0.00 0.00 71 1020.2
20210614095504 66 183 5.0 12.0 0.00 0.00 0.00 72 1020.2
20210614095004 66 184 6.0 13.0 0.00 0.00 0.00 72 1020.2
20210614094504 66 184 7.0 15.0 0.00 0.00 0.00 72 1020.2
20210614093503 66 185 5.0 10.0 0.00 0.00 0.00 72 1020.2
20210614092503 65 186 7.0 12.0 0.00 0.00 0.00 73 1020.2
20210614092003 65 211 5.0 13.0 0.00 0.00 0.00 75 1020.2
20210614091504 65 177 7.0 12.0 0.00 0.00 0.00 73 1020.2
20210614091003 65 196 5.0 13.0 0.00 0.00 0.00 74 1020.2
20210614090503 64 190 7.0 12.0 0.00 0.00 0.00 73 1020.2
20210614090003 64 207 6.0 10.0 0.00 0.00 0.00 74 1020.2
20210614085503 64 177 7.0 12.0 0.00 0.00 0.00 74 1020.2
20210614085003 65 193 5.0 10.0 0.00 0.00 0.00 75 1020.2
20210614084503 64 184 3.0 12.0 0.00 0.00 0.00 76 1020.2
20210614084004 64 194 5.0 12.0 0.00 0.00 0.00 77 1020.2
20210614083503 64 172 6.0 13.0 0.00 0.00 0.00 76 1020.2
20210614082503 64 182 4.0 12.0 0.00 0.00 0.00 77 1020.2
20210614082004 64 181 7.0 12.0 0.00 0.00 0.00 76 1020.2
20210614081504 64 188 7.0 10.0 0.00 0.00 0.00 76 1020.2
20210614080503 64 167 6.0 12.0 0.00 0.00 0.00 77 1020.2
20210614075004 64 205 3.0 10.0 0.00 0.00 0.00 77 1020.2
20210614074004 63 178 6.0 10.0 0.00 0.00 0.00 78 1020.2
20210614073504 63 249 3.0 10.0 0.00 0.00 0.00 77 1020.2
20210614073004 63 188 5.0 8.0 0.00 0.00 0.00 79 1020.2
20210614072504 63 184 3.0 12.0 0.00 0.00 0.00 79 1020.2
20210614072004 62 195 5.0 12.0 0.00 0.00 0.00 79 1020.2
20210614071004 63 182 6.0 9.0 0.00 0.00 0.00 77 1020.2
20210614070503 63 182 5.0 9.0 0.00 0.00 0.00 79 1020.2
20210614070004 63 175 5.0 10.0 0.00 0.00 0.00 79 1020.2
20210614065504 63 225 3.0 8.0 0.00 0.00 0.00 78 1020.2
20210614065004 63 175 4.0 8.0 0.00 0.00 0.00 79 1020.2
20210614064503 63 233 3.0 8.0 0.00 0.00 0.00 79 1020.2
20210614062003 62 196 4.0 10.0 0.00 0.00 0.00 80 1020.2
20210614061003 62 189 5.0 8.0 0.00 0.00 0.00 81 1020.2
20210614060004 62 247 2.0 6.0 0.00 0.00 0.00 81 1020.2
20210614055505 62 193 2.0 5.0 0.00 0.00 0.00 81 1020.2
20210614055003 61 179 2.0 5.0 0.00 0.00 0.00 83 1020.2
20210614054504 61 261 2.0 5.0 0.00 0.00 0.00 82 1020.2
20210614054004 61 196 2.0 3.0 0.00 0.00 0.00 83 1020.2
20210614053503 61 250 2.0 3.0 0.00 0.00 0.00 85 1020.2
20210614053004 61 245 2.0 5.0 0.00 0.00 0.00 85 1020.2
20210614052005 60 250 2.0 5.0 0.00 0.00 0.00 85 1020.2
20210614051504 60 226 0.0 3.0 0.00 0.00 0.00 87 1020.2
20210614051004 60 200 1.0 2.0 0.00 0.00 0.00 87 1020.2
20210614050505 59 201 2.0 5.0 0.00 0.00 0.00 87 1020.2
20210614050004 59 247 1.0 6.0 0.00 0.00 0.00 88 1020.2
20210614045004 59 274 1.0 3.0 0.00 0.00 0.00 88 1020.2
20210614044004 58 256 1.0 3.0 0.00 0.00 0.00 89 1020.2
20210614043004 58 312 0.0 1.0 0.00 0.00 0.00 89 1020.2
20210614042503 57 260 1.0 2.0 0.00 0.00 0.00 90 1020.2
20210614042004 57 294 1.0 2.0 0.00 0.00 0.00 90 1020.2
20210614041504 57 218 0.0 2.0 0.00 0.00 0.00 91 1020.2
20210614041004 56 212 0.0 1.0 0.00 0.00 0.00 92 1020.2
20210614040503 55 212 0.0 1.0 0.00 0.00 0.00 92 1020.2
20210614035504 54 193 0.0 2.0 0.00 0.00 0.00 92 1020.2
20210614035004 54 178 1.0 2.0 0.00 0.00 0.00 92 1020.2
20210614034003 52 179 0.0 1.0 0.00 0.00 0.00 93 1020.2
20210614033504 52 204 0.0 1.0 0.00 0.00 0.00 93 1020.2
20210614033003 52 203 0.0 0.0 0.00 0.00 0.00 93 1020.2
20210614032503 52 204 0.0 1.0 0.00 0.00 0.00 93 1020.2
20210614031504 52 222 0.0 1.0 0.00 0.00 0.00 93 1020.2
20210614031004 52 222 0.0 1.0 0.00 0.00 0.00 92 1020.2
20210614030504 52 242 0.0 1.0 0.00 0.00 0.00 92 1020.2
20210614030004 52 242 0.0 1.0 0.00 0.00 0.00 93 1020.2
20210614025505 52 245 0.0 1.0 0.00 0.00 0.00 93 1020.2
20210614025004 52 227 0.0 1.0 0.00 0.00 0.00 92 1020.2
20210614024503 52 241 0.0 1.0 0.00 0.00 0.00 92 1020.2
20210614023004 51 247 0.0 1.0 0.00 0.00 0.00 93 1020.2
20210614022503 51 216 0.0 1.0 0.00 0.00 0.00 92 1020.2
20210614021503 52 216 0.0 1.0 0.00 0.00 0.00 92 1020.2
20210614020504 52 214 0.0 1.0 0.00 0.00 0.00 92 1020.2
20210614015504 52 214 0.0 2.0 0.00 0.00 0.00 92 1020.2
20210614015004 52 266 0.0 1.0 0.00 0.00 0.00 92 1020.2
20210614014504 52 213 0.0 1.0 0.00 0.00 0.00 91 1020.2
20210614014004 52 211 0.0 1.0 0.00 0.00 0.00 91 1020.2
20210614013503 52 141 0.0 1.0 0.00 0.00 0.00 91 1020.2
20210614012004 53 246 0.0 1.0 0.00 0.00 0.00 91 1020.2
20210614011504 53 225 0.0 3.0 0.00 0.00 0.00 91 1020.2
20210614011003 53 257 2.0 3.0 0.00 0.00 0.00 91 1020.2
20210614010004 52 251 1.0 3.0 0.00 0.00 0.00 91 1020.2
20210614005504 52 226 0.0 3.0 0.00 0.00 0.00 90 1020.2
20210614004503 53 188 0.0 0.0 0.00 0.00 0.00 90 1020.2
20210614004004 53 208 0.0 1.0 0.00 0.00 0.00 89 1020.2
20210614002504 53 267 1.0 1.0 0.00 0.00 0.00 89 1020.2
20210614002004 53 267 0.0 1.0 0.00 0.00 0.00 89 1020.2
20210614001503 53 247 0.0 1.0 0.00 0.00 0.00 89 1020.2
20210614001004 53 226 0.0 1.0 0.00 0.00 0.00 89 1020.2
20210614000503 53 220 0.0 1.0 0.00 0.00 0.00 89 1020.2
20210614000004 53 239 0.0 2.0 0.00 0.00 0.00 89 1020.2
20210613235003 53 215 1.0 3.0 0.00 0.00 0.00 89 1020.2
20210613234503 53 246 0.0 2.0 0.00 0.00 0.00 89 1020.2
20210613233003 53 201 0.0 3.0 0.00 0.00 0.00 88 1020.2
20210613232504 53 281 0.0 1.0 0.00 0.00 0.00 88 1020.2
20210613232003 54 281 0.0 1.0 0.00 0.00 0.00 88 1020.2
20210613231503 54 279 1.0 2.0 0.00 0.00 0.00 88 1020.2
20210613231004 54 291 0.0 1.0 0.00 0.00 0.00 87 1020.2
20210613230504 54 290 1.0 1.0 0.00 0.00 0.00 87 1020.2
20210613230004 54 315 0.0 1.0 0.00 0.00 0.00 87 1020.2
20210613225004 54 305 0.0 3.0 0.00 0.00 0.00 87 1020.2
20210613224503 54 312 1.0 2.0 0.00 0.00 0.00 87 1020.2
20210613224004 55 291 1.0 1.0 0.00 0.00 0.00 86 1020.2
20210613223004 55 294 0.0 2.0 0.00 0.00 0.00 87 1020.2
20210613222504 55 257 0.0 2.0 0.00 0.00 0.00 87 1020.2
20210613222004 55 225 1.0 3.0 0.00 0.00 0.00 87 1020.2
20210613221503 55 252 0.0 2.0 0.00 0.00 0.00 87 1020.2
20210613215003 55 219 0.0 1.0 0.00 0.00 0.00 86 1020.2
20210613214505 55 219 0.0 1.0 0.00 0.00 0.00 86 1020.2
20210613213503 56 219 0.0 3.0 0.00 0.00 0.00 86 1020.2
20210613213004 56 271 1.0 2.0 0.00 0.00 0.00 86 1020.2
20210613212503 56 222 0.0 2.0 0.00 0.00 0.00 85 1020.2
20210613212004 56 250 0.0 2.0 0.00 0.00 0.00 85 1020.2
20210613211004 56 243 0.0 1.0 0.00 0.00 0.00 84 1020.2
20210613210504 57 276 0.0 3.0 0.00 0.00 0.00 84 1020.2
20210613210004 57 293 0.0 2.0 0.00 0.00 0.00 83 1020.2
20210613205503 57 342 1.0 3.0 0.00 0.00 0.00 83 1020.2
20210613205004 57 251 1.0 3.0 0.00 0.00 0.00 83 1020.2
20210613204504 57 265 2.0 3.0 0.00 0.00 0.00 83 1020.2
20210613204004 57 230 1.0 3.0 0.00 0.00 0.00 82 1020.2
20210613202503 58 235 1.0 2.0 0.00 0.00 0.00 80 1020.2
20210613201503 58 232 2.0 3.0 0.00 0.00 0.00 80 1020.2
20210613201005 59 248 1.0 3.0 0.00 0.00 0.00 79 1020.2
20210613195504 59 243 2.0 3.0 0.00 0.00 0.00 77 1020.2
20210613194003 60 300 2.0 5.0 0.00 0.00 0.00 75 1020.2
20210613193504 60 251 1.0 3.0 0.00 0.00 0.00 74 1020.2
20210613192504 61 323 1.0 3.0 0.00 0.00 0.00 74 1020.2
20210613192004 61 286 1.0 9.0 0.00 0.00 0.00 74 1020.2
20210613191504 61 276 3.0 6.0 0.00 0.00 0.00 73 1020.2
20210613190504 62 273 2.0 7.0 0.00 0.00 0.00 72 1020.2
20210613190004 62 303 2.0 6.0 0.00 0.00 0.00 72 1020.2
20210613185504 62 319 2.0 8.0 0.00 0.00 0.00 72 1020.2
20210613185004 62 307 2.0 6.0 0.00 0.00 0.00 71 1020.2
20210613184503 63 269 3.0 8.0 0.00 0.00 0.00 70 1020.2
20210613184004 63 286 3.0 9.0 0.00 0.00 0.00 70 1020.2
20210613183504 63 278 2.0 5.0 0.00 0.00 0.00 69 1020.2
20210613183004 64 309 3.0 6.0 0.00 0.00 0.00 68 1020.2
20210613182504 64 268 3.0 7.0 0.00 0.00 0.00 68 1020.2
20210613181504 64 307 5.0 12.0 0.00 0.00 0.00 68 1020.2